Saint Pauls, North Carolina
Current Conditions -  °F | °C
As of 8:53 AM on Monday 20 Oct 2014 (Local Time) from KFAY Reporting Station
Clear Clear  
Wind Chill: 50°   Ceiling: Unl
Heat Index: 50°   Visibility: 10mi
Dew Point: 45°   Wind: 3mph
Humidity: 83%   Direction: 180°S
Pressure: 30.17"   Gusts: NA
Location:  34.81°N, 78.97°W
Report Text: KFAY 201253Z AUTO 18003KT 10SM CLR 10/07 A3017 RMK AO2 SLP212 T01000072
Loading
Personal Weather Stations






























Interactive Weather Map
Tropical Storm Tracking
New forecast layout! Learn more

10-Day Weather Forecast

Advertisements
Track Severe Weather on mobile